Time;durP1;ratioP1;P1;durP2;ratioP2;P2;SDS_P1;SDS_P2;PMS_P1;PMS_P2;Temp;Humidity;BMP_temperature;BMP_pressure;BME280_temperature;BME280_humidity;BME280_pressure;Samples;Min_cycle;Max_cycle;Signal;HPM_P1;HPM_P2
2022/01/15 00:02:19;;;;;;;4.38;3.97;;;;;;;4.94;58.59;95198.31;5075915;28;20508;-65
2022/01/15 00:04:47;;;;;;;4.10;3.80;;;;;;;4.94;59.34;95181.91;5076578;28;20609;-66
2022/01/15 00:07:14;;;;;;;4.38;4.03;;;;;;;4.94;59.08;95199.16;5076651;28;20181;-66
2022/01/15 00:09:43;;;;;;;4.25;3.85;;;;;;;4.95;59.11;95203.47;5076464;28;20199;-65
2022/01/15 00:12:11;;;;;;;4.25;3.78;;;;;;;4.96;59.32;95198.81;5075861;28;20197;-65
2022/01/15 00:14:41;;;;;;;4.20;3.90;;;;;;;4.94;59.41;95196.41;5076062;28;20517;-65
2022/01/15 00:17:15;;;;;;;4.40;4.00;;;;;;;4.94;59.51;95206.50;5076070;28;20241;-66
2022/01/15 00:19:42;;;;;;;4.13;3.70;;;;;;;4.89;59.56;95196.53;5076153;28;20210;-65
2022/01/15 00:22:11;;;;;;;4.00;3.67;;;;;;;4.91;59.52;95186.09;5075138;28;20292;-65
2022/01/15 00:24:39;;;;;;;4.10;3.80;;;;;;;4.92;59.63;95201.38;5075803;28;20615;-65
2022/01/15 00:27:06;;;;;;;4.40;4.10;;;;;;;4.91;59.84;95194.31;5076193;28;20188;-65
2022/01/15 00:29:33;;;;;;;4.18;3.85;;;;;;;4.93;59.91;95188.50;5074785;28;20224;-65
2022/01/15 00:32:01;;;;;;;4.00;3.70;;;;;;;4.91;60.06;95205.22;5075208;28;20197;-65
2022/01/15 00:34:28;;;;;;;3.83;3.53;;;;;;;4.91;60.14;95212.63;5075094;28;20200;-65
2022/01/15 00:36:55;;;;;;;3.97;3.67;;;;;;;4.94;59.94;95211.97;5075216;28;20288;-65
2022/01/15 00:39:24;;;;;;;4.30;3.90;;;;;;;4.95;60.26;95213.63;5075943;28;20189;-65
2022/01/15 00:41:50;;;;;;;4.40;4.00;;;;;;;4.95;59.82;95219.06;5075591;28;20200;-65
2022/01/15 00:44:17;;;;;;;3.90;3.60;;;;;;;4.94;59.85;95226.47;5074570;28;20632;-65
2022/01/15 00:46:44;;;;;;;3.78;3.47;;;;;;;4.91;59.65;95226.28;5075427;28;20189;-65
2022/01/15 00:49:11;;;;;;;3.90;3.60;;;;;;;4.89;59.94;95231.25;5074825;28;20197;-65
2022/01/15 00:51:39;;;;;;;4.07;3.67;;;;;;;4.88;60.20;95227.72;5075722;28;20189;-65
2022/01/15 00:54:06;;;;;;;3.78;3.47;;;;;;;4.86;60.63;95229.94;5082263;28;20268;-65
2022/01/15 00:56:34;;;;;;;3.70;3.40;;;;;;;4.89;59.97;95226.59;5083481;28;20181;-65
2022/01/15 00:59:01;;;;;;;4.00;3.70;;;;;;;4.90;59.90;95227.41;5077419;28;20209;-65
2022/01/15 01:01:27;;;;;;;4.50;4.10;;;;;;;4.89;60.42;95223.06;5075642;28;20181;-65
2022/01/15 01:03:54;;;;;;;4.13;3.83;;;;;;;4.85;60.39;95216.59;5074780;28;20197;-65
2022/01/15 01:06:21;;;;;;;3.95;3.65;;;;;;;4.83;60.51;95206.81;5074250;28;20209;-65
2022/01/15 01:08:48;;;;;;;3.92;3.63;;;;;;;4.82;60.51;95207.91;5075111;28;20181;-66
2022/01/15 01:11:17;;;;;;;4.00;3.70;;;;;;;4.80;60.70;95210.16;5075440;28;20199;-65
2022/01/15 01:24:48;;;;;;;4.28;3.88;;;;;;;4.82;60.73;95213.38;5074871;28;20185;-65
2022/01/15 01:27:21;;;;;;;4.40;4.00;;;;;;;4.85;60.23;95216.59;5074476;28;20532;-65
2022/01/15 01:30:09;;;;;;;4.10;3.80;;;;;;;4.83;60.65;95208.72;5074346;28;20212;-65
2022/01/15 01:32:45;;;;;;;3.90;3.60;;;;;;;4.85;60.38;95197.47;5075143;28;20189;-65
2022/01/15 01:35:16;;;;;;;4.40;4.10;;;;;;;4.84;60.77;95193.94;5075174;28;20188;-65
2022/01/15 01:37:44;;;;;;;4.07;3.78;;;;;;;4.82;60.46;95190.69;5075029;28;20201;-65
2022/01/15 01:40:20;;;;;;;4.53;4.20;;;;;;;4.83;60.05;95189.59;5075108;28;20181;-65
2022/01/15 01:42:57;;;;;;;4.88;4.47;;;;;;;4.82;60.35;95201.63;5074295;28;20704;-65
2022/01/15 01:45:25;;;;;;;4.75;4.35;;;;;;;4.76;60.72;95206.44;5075066;28;20279;-65
2022/01/15 01:47:52;;;;;;;4.40;4.05;;;;;;;4.79;60.64;95207.72;5074380;28;20223;-65
2022/01/15 01:50:21;;;;;;;4.80;4.40;;;;;;;4.82;60.20;95190.69;5075009;28;20197;-65
2022/01/15 01:52:50;;;;;;;4.90;4.50;;;;;;;4.82;60.43;95190.69;5074075;28;20192;-65
2022/01/15 01:55:18;;;;;;;4.68;4.28;;;;;;;4.81;59.91;95183.63;5074579;28;20201;-65
2022/01/15 01:57:46;;;;;;;4.65;4.20;;;;;;;4.77;59.72;95186.19;5074750;28;20254;-65
2022/01/15 02:00:15;;;;;;;5.53;5.03;;;;;;;4.77;59.75;95183.44;5075070;28;20181;-64
2022/01/15 02:02:44;;;;;;;5.40;4.90;;;;;;;4.77;59.46;95180.72;5074540;28;20197;-64
2022/01/15 02:05:11;;;;;;;5.75;5.15;;;;;;;4.76;59.22;95178.31;5074660;28;20182;-65
2022/01/15 02:07:38;;;;;;;4.57;4.28;;;;;;;4.75;59.04;95176.69;5074794;28;20185;-62
2022/01/15 02:10:08;;;;;;;4.75;4.35;;;;;;;4.74;59.27;95159.47;5075122;28;20234;-62
2022/01/15 02:12:35;;;;;;;4.78;4.38;;;;;;;4.76;59.33;95159.97;5074841;28;20204;-62
2022/01/15 02:15:06;;;;;;;4.70;4.30;;;;;;;4.81;59.23;95159.03;5074772;28;20181;-62
2022/01/15 02:17:33;;;;;;;4.82;4.43;;;;;;;4.83;59.32;95171.28;5076636;28;20186;-63
2022/01/15 02:20:24;;;;;;;4.60;4.20;;;;;;;4.82;59.19;95169.63;5078651;28;20185;-63
2022/01/15 02:25:42;;;;;;;4.82;4.43;;;;;;;4.81;59.35;95181.69;5068163;28;20217;-63
2022/01/15 02:28:09;;;;;;;5.00;4.60;;;;;;;4.74;59.74;95170.41;5077323;28;20286;-63
2022/01/15 02:30:36;;;;;;;4.82;4.32;;;;;;;4.75;59.81;95184.88;5078186;28;20185;-63
2022/01/15 02:33:03;;;;;;;5.18;4.78;;;;;;;4.79;59.32;95185.84;5077628;28;20208;-63
2022/01/15 02:35:31;;;;;;;4.63;4.22;;;;;;;4.80;59.12;95190.22;5078435;28;20204;-63
2022/01/15 02:38:02;;;;;;;5.05;4.65;;;;;;;4.81;59.34;95192.63;5077287;28;20221;-63
2022/01/15 02:40:29;;;;;;;5.57;5.07;;;;;;;4.80;59.42;95192.97;5077948;28;20569;-63
2022/01/15 02:42:57;;;;;;;5.07;4.57;;;;;;;4.79;59.18;95194.88;5077215;28;20201;-63
2022/01/15 02:45:26;;;;;;;5.50;5.00;;;;;;;4.75;59.27;95202.06;5077440;28;20200;-63
2022/01/15 02:48:02;;;;;;;5.50;5.00;;;;;;;4.74;59.19;95203.19;5078163;28;20193;-63
2022/01/15 02:50:29;;;;;;;5.82;5.28;;;;;;;4.73;58.55;95203.53;5077142;28;20205;-63
2022/01/15 02:52:57;;;;;;;5.45;4.95;;;;;;;4.72;58.78;95202.72;5077077;28;20201;-63
2022/01/15 02:55:24;;;;;;;5.30;4.90;;;;;;;4.70;58.51;95207.69;5076598;28;20201;-63
2022/01/15 02:57:51;;;;;;;5.10;4.70;;;;;;;4.67;58.63;95212.97;5077461;28;20181;-63
2022/01/15 03:00:18;;;;;;;5.60;5.10;;;;;;;4.66;58.45;95217.63;5077675;28;20193;-63
2022/01/15 03:02:45;;;;;;;6.13;5.57;;;;;;;4.67;58.50;95216.50;5077769;28;20195;-63
2022/01/15 03:05:12;;;;;;;5.78;5.28;;;;;;;4.70;57.96;95213.13;5077825;28;20185;-63
2022/01/15 03:07:39;;;;;;;6.20;5.60;;;;;;;4.73;58.11;95225.38;5076994;28;20208;-63
2022/01/15 03:10:09;;;;;;;5.70;5.20;;;;;;;4.72;57.81;95218.28;5076914;28;20204;-63
2022/01/15 03:12:36;;;;;;;6.63;6.13;;;;;;;4.71;57.10;95233.88;5077614;28;20185;-64
2022/01/15 03:15:05;;;;;;;6.50;6.00;;;;;;;4.65;56.81;95231.56;5076687;28;20201;-63
2022/01/15 03:17:32;;;;;;;6.65;6.05;;;;;;;4.63;56.51;95220.16;5077480;28;20227;-63
2022/01/15 03:19:59;;;;;;;6.85;6.25;;;;;;;4.61;56.32;95209.53;5077433;28;20216;-63
2022/01/15 03:22:26;;;;;;;7.20;6.60;;;;;;;4.57;56.49;95203.91;5077123;28;20189;-63
2022/01/15 03:24:52;;;;;;;7.40;6.70;;;;;;;4.51;56.45;95210.63;5076403;28;20189;-63
2022/01/15 03:27:23;;;;;;;7.45;6.75;;;;;;;4.51;56.21;95204.34;5075684;28;20204;-63
2022/01/15 03:29:50;;;;;;;7.93;7.22;;;;;;;4.51;56.27;95204.34;5076339;28;20218;-63
2022/01/15 03:32:17;;;;;;;7.93;7.18;;;;;;;4.51;56.22;95213.34;5077301;28;20186;-63
2022/01/15 03:34:44;;;;;;;7.38;6.68;;;;;;;4.44;56.68;95209.44;5076843;28;20182;-63
2022/01/15 03:37:11;;;;;;;6.82;6.22;;;;;;;4.40;56.53;95211.97;5077122;28;20200;-63
2022/01/15 03:39:38;;;;;;;7.80;7.10;;;;;;;4.40;56.59;95213.91;5077029;28;20633;-63
2022/01/15 03:42:11;;;;;;;6.97;6.28;;;;;;;4.40;57.01;95228.38;5076771;28;20238;-63
2022/01/15 03:44:40;;;;;;;7.45;6.68;;;;;;;4.40;57.01;95224.84;5076054;28;20535;-63
2022/01/15 03:47:07;;;;;;;6.30;5.75;;;;;;;4.44;56.82;95234.81;5076236;28;20223;-63
2022/01/15 03:49:34;;;;;;;6.65;6.10;;;;;;;4.43;57.22;95222.28;5077135;28;20258;-63
2022/01/15 03:52:00;;;;;;;6.53;5.93;;;;;;;4.43;57.30;95226.91;5075752;28;20552;-63
2022/01/15 03:54:27;;;;;;;6.47;5.90;;;;;;;4.43;57.45;95229.66;5076517;28;20196;-63
2022/01/15 03:56:54;;;;;;;7.15;6.45;;;;;;;4.46;57.31;95238.03;5075789;28;20230;-63
2022/01/15 03:59:21;;;;;;;6.75;6.07;;;;;;;4.51;57.66;95237.13;5076313;28;20220;-63
2022/01/15 04:01:49;;;;;;;7.32;6.65;;;;;;;4.47;57.51;95247.88;5076709;28;20188;-63
2022/01/15 04:04:16;;;;;;;6.88;6.30;;;;;;;4.43;57.73;95259.69;5076441;28;20227;-63
2022/01/15 04:06:43;;;;;;;8.30;7.50;;;;;;;4.46;57.42;95251.69;5076526;28;20189;-63
2022/01/15 04:09:10;;;;;;;7.13;6.53;;;;;;;4.47;57.37;95247.88;5076318;28;20204;-63
2022/01/15 04:11:37;;;;;;;7.57;6.88;;;;;;;4.47;57.75;95263.44;5076523;28;20195;-63
2022/01/15 04:14:05;;;;;;;7.80;7.18;;;;;;;4.43;58.10;95271.44;5075786;28;20306;-63
2022/01/15 04:16:32;;;;;;;7.03;6.32;;;;;;;4.38;57.80;95274.28;5075744;28;20317;-63
2022/01/15 04:19:01;;;;;;;8.05;7.35;;;;;;;4.35;58.03;95274.91;5076205;28;20213;-64
2022/01/15 04:21:28;;;;;;;7.93;7.32;;;;;;;4.38;57.67;95278.94;5075628;28;20204;-65
2022/01/15 04:23:55;;;;;;;8.25;7.55;;;;;;;4.37;57.90;95293.72;5075866;28;20525;-65
2022/01/15 04:26:25;;;;;;;8.75;7.95;;;;;;;4.38;57.94;95298.88;5076512;28;20189;-65
2022/01/15 04:28:52;;;;;;;8.10;7.40;;;;;;;4.39;57.99;95300.47;5074619;28;20236;-64
2022/01/15 04:31:19;;;;;;;8.45;7.65;;;;;;;4.40;57.73;95309.50;5075228;28;20197;-64
2022/01/15 04:33:46;;;;;;;9.25;8.45;;;;;;;4.39;57.76;95310.59;5075787;28;20209;-64
2022/01/15 04:36:15;;;;;;;8.48;7.68;;;;;;;4.38;57.82;95296.13;5075845;28;20192;-64
2022/01/15 04:38:44;;;;;;;9.13;8.35;;;;;;;4.32;58.11;95300.91;5075321;28;20201;-64
2022/01/15 04:41:11;;;;;;;8.77;7.88;;;;;;;4.28;58.19;95310.00;5074125;28;20260;-64
2022/01/15 04:43:38;;;;;;;8.95;8.18;;;;;;;4.24;58.62;95296.16;5075363;28;20203;-64
2022/01/15 04:46:05;;;;;;;9.00;8.10;;;;;;;4.27;58.36;95294.75;5075453;28;20189;-64
2022/01/15 04:48:32;;;;;;;9.35;8.52;;;;;;;4.26;58.45;95298.59;5074905;28;20201;-64
2022/01/15 04:50:58;;;;;;;9.18;8.38;;;;;;;4.26;58.50;95304.06;5075778;28;20200;-64
2022/01/15 04:53:26;;;;;;;9.50;8.68;;;;;;;4.26;58.85;95301.34;5075385;28;20201;-64
2022/01/15 04:55:53;;;;;;;8.77;7.97;;;;;;;4.22;59.12;95308.53;5075342;28;20185;-64
2022/01/15 04:58:20;;;;;;;9.00;8.20;;;;;;;4.19;59.32;95309.94;5074689;28;20323;-64
2022/01/15 05:00:47;;;;;;;9.10;8.30;;;;;;;4.17;59.32;95311.34;5074550;28;20200;-64
2022/01/15 05:03:14;;;;;;;9.43;8.60;;;;;;;4.12;59.43;95303.28;5075600;28;20193;-64
2022/01/15 05:05:41;;;;;;;9.25;8.45;;;;;;;4.10;60.07;95311.75;5075189;28;20212;-64
2022/01/15 05:08:10;;;;;;;8.63;7.82;;;;;;;4.10;60.29;95303.56;5074606;28;20204;-64
2022/01/15 05:10:45;;;;;;;9.40;8.60;;;;;;;4.07;59.95;95306.94;5075555;28;20182;-65
2022/01/15 05:13:14;;;;;;;9.40;8.60;;;;;;;4.03;60.57;95311.38;5074838;28;20204;-64
2022/01/15 05:15:43;;;;;;;9.43;8.57;;;;;;;4.03;60.38;95306.75;5074867;28;20232;-64
2022/01/15 05:18:10;;;;;;;9.48;8.60;;;;;;;4.04;60.46;95316.53;5075554;28;20182;-64
2022/01/15 05:20:41;;;;;;;9.20;8.40;;;;;;;4.04;60.57;95318.47;5074911;28;20640;-64
2022/01/15 05:23:07;;;;;;;9.88;9.07;;;;;;;4.05;60.77;95325.53;5074377;28;20212;-65
2022/01/15 05:25:34;;;;;;;9.60;8.70;;;;;;;4.01;60.61;95328.06;5075201;28;20200;-65
2022/01/15 05:28:03;;;;;;;9.43;8.45;;;;;;;4.03;60.75;95328.56;5075039;28;20301;-64
2022/01/15 05:30:31;;;;;;;9.32;8.43;;;;;;;4.05;60.44;95341.91;5075191;28;20216;-65
2022/01/15 05:32:59;;;;;;;10.02;9.13;;;;;;;4.07;60.40;95351.41;5075281;28;20247;-65
2022/01/15 05:35:27;;;;;;;9.57;8.73;;;;;;;4.07;61.07;95347.88;5075190;28;20181;-64
2022/01/15 05:37:54;;;;;;;8.93;8.20;;;;;;;4.08;60.80;95344.84;5074830;28;20215;-65
2022/01/15 05:43:07;;;;;;;10.75;9.75;;;;;;;4.12;60.54;95350.50;5074803;28;20264;-64
2022/01/15 05:45:34;;;;;;;9.68;8.77;;;;;;;4.14;60.51;95355.63;5075087;28;20189;-64
2022/01/15 05:48:01;;;;;;;9.90;9.00;;;;;;;4.10;60.83;95359.00;5074093;28;20205;-65
2022/01/15 05:50:27;;;;;;;9.50;8.70;;;;;;;4.13;60.92;95359.50;5075209;28;20192;-65
2022/01/15 05:52:54;;;;;;;9.55;8.65;;;;;;;4.17;60.53;95371.41;5078198;28;20211;-65
2022/01/15 05:55:21;;;;;;;10.00;9.18;;;;;;;4.15;60.39;95365.47;5078427;28;20207;-65
2022/01/15 05:57:48;;;;;;;10.05;9.10;;;;;;;4.14;60.37;95372.00;5078117;28;20201;-65
2022/01/15 06:00:17;;;;;;;12.55;11.40;;;;;;;4.16;60.54;95372.53;5077725;28;20213;-65
2022/01/15 06:02:43;;;;;;;11.18;10.18;;;;;;;4.15;60.90;95374.47;5078071;28;20193;-65
2022/01/15 06:05:10;;;;;;;11.00;10.00;;;;;;;4.16;60.68;95386.19;5078967;28;20328;-65
2022/01/15 06:07:37;;;;;;;11.20;10.20;;;;;;;4.16;60.84;95380.72;5078004;28;20208;-65
2022/01/15 06:10:05;;;;;;;10.35;9.35;;;;;;;4.13;61.03;95390.31;5079061;28;20186;-65
2022/01/15 06:12:40;;;;;;;10.50;9.57;;;;;;;4.12;60.78;95385.19;5078452;28;20512;-65
2022/01/15 06:15:08;;;;;;;10.48;9.57;;;;;;;4.09;60.71;95390.13;5078718;28;20200;-65
2022/01/15 06:17:37;;;;;;;10.73;9.73;;;;;;;4.08;61.25;95390.44;5078839;28;20212;-64
2022/01/15 06:20:04;;;;;;;10.55;9.65;;;;;;;4.07;61.03;95397.81;5078662;28;20212;-64
2022/01/15 06:22:31;;;;;;;10.10;9.20;;;;;;;4.01;61.49;95409.94;5078578;28;20193;-64
2022/01/15 06:24:58;;;;;;;10.13;9.13;;;;;;;3.93;61.49;95401.66;5078531;28;20200;-67
2022/01/15 06:27:24;;;;;;;10.63;9.73;;;;;;;3.91;61.94;95410.13;5077494;28;20200;-65
2022/01/15 06:29:51;;;;;;;10.45;9.60;;;;;;;3.85;61.88;95395.78;5077622;28;20200;-64
2022/01/15 06:32:18;;;;;;;10.82;9.93;;;;;;;3.82;62.25;95392.84;5078168;28;20193;-64
2022/01/15 06:34:46;;;;;;;10.90;10.00;;;;;;;3.82;62.06;95392.84;5078215;28;20189;-64
2022/01/15 06:37:13;;;;;;;11.35;10.35;;;;;;;3.85;62.09;95409.44;5078326;28;20208;-64
2022/01/15 06:39:40;;;;;;;10.88;9.90;;;;;;;3.82;62.00;95415.50;5077553;28;20216;-64
2022/01/15 06:42:07;;;;;;;11.98;10.88;;;;;;;3.86;62.12;95421.16;5077030;28;20424;-63
2022/01/15 06:44:33;;;;;;;11.20;10.20;;;;;;;3.84;62.16;95410.53;5078054;28;20189;-64
2022/01/15 06:47:00;;;;;;;11.80;10.70;;;;;;;3.89;62.03;95425.22;5077806;28;20736;-64
2022/01/15 06:49:27;;;;;;;11.07;10.15;;;;;;;3.93;61.92;95421.56;5078134;28;20193;-64
2022/01/15 06:51:55;;;;;;;11.32;10.32;;;;;;;3.96;61.86;95433.78;5077091;28;20185;-63
2022/01/15 06:54:22;;;;;;;11.93;10.82;;;;;;;3.97;61.43;95428.03;5077787;28;20186;-64
2022/01/15 06:56:49;;;;;;;11.18;10.18;;;;;;;3.97;61.60;95428.03;5077871;28;20189;-64
2022/01/15 06:59:15;;;;;;;10.95;10.05;;;;;;;3.98;61.91;95428.84;5076603;28;20225;-65
2022/01/15 07:01:42;;;;;;;11.27;10.27;;;;;;;4.00;61.76;95429.34;5076939;28;20213;-64
2022/01/15 07:04:09;;;;;;;11.48;10.48;;;;;;;4.01;61.59;95426.31;5076683;28;20196;-64
2022/01/15 07:06:36;;;;;;;11.35;10.35;;;;;;;4.07;61.73;95422.38;5077729;28;20196;-63
2022/01/15 07:09:04;;;;;;;10.80;9.80;;;;;;;4.07;61.88;95422.38;5077687;28;20196;-63
2022/01/15 07:11:31;;;;;;;11.55;10.48;;;;;;;4.06;61.74;95423.47;5077102;28;20610;-63
2022/01/15 07:13:57;;;;;;;11.25;10.32;;;;;;;4.12;61.78;95426.94;5077649;28;20196;-63
2022/01/15 07:16:24;;;;;;;11.50;10.43;;;;;;;4.17;61.46;95428.75;5077526;28;20186;-64
2022/01/15 07:18:51;;;;;;;12.05;11.00;;;;;;;4.21;61.83;95435.22;5077130;28;20196;-63
2022/01/15 07:21:18;;;;;;;12.32;11.00;;;;;;;4.20;61.61;95431.69;5077627;28;20201;-64
2022/01/15 07:23:45;;;;;;;12.73;11.43;;;;;;;4.19;61.79;95432.78;5077464;28;20189;-64
2022/01/15 07:26:13;;;;;;;11.85;10.82;;;;;;;4.12;61.39;95443.31;5076615;28;20197;-63
2022/01/15 07:28:40;;;;;;;12.57;11.43;;;;;;;4.10;61.99;95448.25;5076131;28;20563;-64
2022/01/15 07:31:06;;;;;;;12.38;11.27;;;;;;;4.07;62.07;95455.16;5077027;28;20181;-63
2022/01/15 07:33:33;;;;;;;12.30;11.20;;;;;;;4.05;61.76;95460.09;5076963;28;20193;-63
2022/01/15 07:36:00;;;;;;;11.68;10.52;;;;;;;4.07;61.86;95470.72;5075996;28;20193;-63
2022/01/15 07:38:27;;;;;;;12.52;11.20;;;;;;;4.06;61.94;95480.81;5076871;28;20601;-63
2022/01/15 07:40:57;;;;;;;12.00;11.00;;;;;;;4.12;61.81;95494.38;5076707;28;20641;-63
2022/01/15 07:43:26;;;;;;;12.32;11.23;;;;;;;4.13;61.68;95490.53;5078451;28;20198;-63
2022/01/15 07:45:53;;;;;;;13.25;11.95;;;;;;;4.15;61.68;95475.47;5077914;28;20185;-63
2022/01/15 07:48:21;;;;;;;12.98;11.68;;;;;;;4.17;61.26;95475.97;5077110;28;20203;-64
2022/01/15 07:50:48;;;;;;;13.23;12.02;;;;;;;4.16;61.39;95468.09;5077032;28;20579;-64
2022/01/15 07:53:16;;;;;;;13.10;11.80;;;;;;;4.21;61.30;95482.47;5077024;28;20185;-63
2022/01/15 07:55:42;;;;;;;12.65;11.55;;;;;;;4.22;60.79;95483.25;5076539;28;20267;-63
2022/01/15 07:58:10;;;;;;;12.35;11.05;;;;;;;4.15;61.51;95491.03;5077446;28;20243;-63
2022/01/15 08:00:38;;;;;;;12.68;11.60;;;;;;;4.15;61.41;95488.31;5075522;28;20283;-63
2022/01/15 08:03:05;;;;;;;13.05;11.95;;;;;;;4.24;61.33;95497.41;5076801;28;20185;-63
2022/01/15 08:05:32;;;;;;;14.05;12.75;;;;;;;4.22;60.95;95496.91;5076099;28;20215;-64
2022/01/15 08:07:58;;;;;;;13.80;12.50;;;;;;;4.26;61.03;95496.00;5075702;28;20185;-63
2022/01/15 08:10:25;;;;;;;13.32;12.02;;;;;;;4.27;61.15;95494.88;5075440;28;20194;-63
2022/01/15 08:12:52;;;;;;;13.02;11.82;;;;;;;4.29;60.68;95494.59;5075814;28;20204;-63
2022/01/15 08:15:20;;;;;;;13.05;11.85;;;;;;;4.28;60.70;95499.22;5075491;28;20203;-63
2022/01/15 08:17:49;;;;;;;12.60;11.40;;;;;;;4.28;60.90;95514.81;5076368;28;20272;-64
2022/01/15 08:20:17;;;;;;;12.65;11.55;;;;;;;4.27;60.63;95527.66;5075914;28;20540;-64
2022/01/15 08:22:45;;;;;;;11.88;10.77;;;;;;;4.20;60.56;95527.22;5076157;28;20197;-63
2022/01/15 08:25:13;;;;;;;12.43;11.43;;;;;;;4.21;61.08;95528.03;5075912;28;20208;-63
2022/01/15 08:27:40;;;;;;;12.95;11.80;;;;;;;4.23;60.85;95525.84;5075936;28;20244;-64
2022/01/15 08:30:09;;;;;;;12.10;11.00;;;;;;;4.27;60.66;95529.56;5075285;28;20197;-64
2022/01/15 08:32:36;;;;;;;13.38;12.18;;;;;;;4.25;60.53;95527.16;5075145;28;20200;-64
2022/01/15 08:35:06;;;;;;;12.27;11.07;;;;;;;4.26;60.09;95539.69;5075105;28;20193;-63
2022/01/15 08:37:34;;;;;;;12.88;11.57;;;;;;;4.23;60.04;95534.84;5075977;28;20189;-64
2022/01/15 08:40:00;;;;;;;12.32;11.23;;;;;;;4.24;60.12;95546.56;5075294;28;20271;-64
2022/01/15 08:42:27;;;;;;;12.57;11.48;;;;;;;4.21;59.94;95548.00;5075974;28;20200;-64
2022/01/15 08:44:54;;;;;;;12.05;10.95;;;;;;;4.11;60.42;95545.44;5074917;28;20201;-64
2022/01/15 08:47:21;;;;;;;12.43;11.40;;;;;;;4.11;60.71;95561.81;5075834;28;20185;-64
2022/01/15 08:49:48;;;;;;;12.82;11.73;;;;;;;4.12;60.07;95559.88;5075192;28;20197;-64
2022/01/15 08:52:16;;;;;;;11.27;10.27;;;;;;;4.18;60.16;95556.78;5074449;28;20203;-64
2022/01/15 08:54:43;;;;;;;12.40;11.30;;;;;;;4.24;59.93;95561.00;5075342;28;20189;-64
2022/01/15 08:57:10;;;;;;;10.90;9.90;;;;;;;4.20;59.75;95562.72;5074638;28;20523;-64
2022/01/15 08:59:36;;;;;;;10.80;9.70;;;;;;;4.16;60.35;95558.97;5075526;28;20185;-64
2022/01/15 09:02:04;;;;;;;11.60;10.60;;;;;;;4.46;61.16;95557.59;5075480;28;20212;-64
2022/01/15 09:04:30;;;;;;;12.15;11.05;;;;;;;4.67;60.73;95570.88;5074674;28;20189;-63
2022/01/15 09:06:57;;;;;;;11.52;10.52;;;;;;;4.83;60.43;95572.22;5075153;28;20530;-63
2022/01/15 09:09:25;;;;;;;13.23;11.93;;;;;;;4.83;60.88;95578.50;5075448;28;20186;-64
2022/01/15 09:11:52;;;;;;;12.25;11.15;;;;;;;4.75;61.28;95572.91;5075435;28;20284;-63
2022/01/15 09:14:19;;;;;;;11.63;10.43;;;;;;;4.65;60.33;95573.09;5074577;28;20188;-64
2022/01/15 09:16:46;;;;;;;11.20;10.27;;;;;;;4.58;60.38;95559.88;5074889;28;20225;-63
2022/01/15 09:19:13;;;;;;;11.43;10.43;;;;;;;4.58;61.36;95565.34;5075553;28;20196;-65
2022/01/15 09:21:39;;;;;;;11.25;10.27;;;;;;;4.59;61.27;95570.47;5075241;28;20219;-64
2022/01/15 09:24:06;;;;;;;11.55;10.50;;;;;;;4.68;60.37;95575.22;5074465;28;20212;-65
2022/01/15 09:27:01;;;;;;;11.05;10.05;;;;;;;4.77;60.80;95576.16;5073855;28;20204;-64
2022/01/15 09:32:14;;;;;;;11.73;10.63;;;;;;;4.93;60.78;95580.19;5074856;28;20264;-64
2022/01/15 09:34:42;;;;;;;11.93;10.90;;;;;;;4.90;58.30;95569.06;5074204;28;20605;-65
2022/01/15 09:37:08;;;;;;;11.30;10.40;;;;;;;4.99;59.70;95564.50;5074855;28;20195;-65
2022/01/15 09:39:36;;;;;;;10.15;9.25;;;;;;;5.11;60.06;95564.78;5073895;28;20567;-64
2022/01/15 09:42:05;;;;;;;10.88;9.77;;;;;;;5.27;59.25;95557.88;5074408;28;20290;-64
2022/01/15 09:44:33;;;;;;;10.35;9.45;;;;;;;5.48;59.16;95558.25;5075060;28;20185;-65
2022/01/15 09:47:01;;;;;;;10.15;9.25;;;;;;;5.72;58.49;95543.44;5074098;28;20201;-65
2022/01/15 09:49:28;;;;;;;10.85;9.95;;;;;;;5.95;58.20;95552.50;5074110;28;20212;-63
2022/01/15 09:51:56;;;;;;;11.57;10.52;;;;;;;6.02;56.84;95541.91;5073027;28;20523;-64
2022/01/15 09:54:22;;;;;;;10.55;9.65;;;;;;;6.03;55.77;95541.63;5074776;28;20706;-64
2022/01/15 09:56:49;;;;;;;11.55;10.55;;;;;;;5.97;57.63;95550.28;5074007;28;20201;-64
2022/01/15 09:59:18;;;;;;;11.90;10.70;;;;;;;5.89;56.39;95549.06;5073955;28;20203;-64
2022/01/15 10:01:45;;;;;;;11.40;10.38;;;;;;;5.94;57.48;95551.69;5074568;28;20621;-64
2022/01/15 10:04:11;;;;;;;10.88;9.88;;;;;;;6.03;56.14;95554.50;5073649;28;20204;-64
2022/01/15 10:07:08;;;;;;;11.55;10.45;;;;;;;6.21;57.62;95564.47;5073916;28;20189;-64
2022/01/15 10:09:35;;;;;;;10.27;9.35;;;;;;;6.37;54.93;95564.84;5074161;28;20555;-65
2022/01/15 10:12:03;;;;;;;10.70;9.60;;;;;;;6.56;55.27;95553.66;5073822;28;20189;-64
2022/01/15 10:14:32;;;;;;;10.45;9.55;;;;;;;6.59;56.10;95557.72;5073905;28;20263;-64
2022/01/15 10:17:01;;;;;;;11.63;10.55;;;;;;;6.73;55.96;95558.44;5073791;28;20208;-64
2022/01/15 10:19:30;;;;;;;11.30;10.20;;;;;;;6.86;56.16;95559.41;5074791;28;20196;-64
2022/01/15 10:22:08;;;;;;;11.05;10.02;;;;;;;7.00;55.33;95549.16;5073907;28;20240;-64
2022/01/15 10:24:36;;;;;;;11.02;10.13;;;;;;;7.16;55.56;95546.78;5075413;28;20192;-65
2022/01/15 10:27:20;;;;;;;10.52;9.52;;;;;;;7.24;54.29;95541.31;5074899;28;20304;-64
2022/01/15 10:29:58;;;;;;;10.02;9.13;;;;;;;7.29;53.75;95539.53;5073707;28;20232;-65
2022/01/15 10:32:25;;;;;;;10.55;9.65;;;;;;;7.32;53.56;95538.91;5074814;28;20193;-65
2022/01/15 10:34:52;;;;;;;9.95;9.05;;;;;;;7.39;52.83;95531.81;5073602;28;20561;-64
2022/01/15 10:37:21;;;;;;;9.55;8.65;;;;;;;7.43;52.28;95531.97;5074601;28;20177;-64
2022/01/15 10:39:58;;;;;;;9.93;9.10;;;;;;;7.45;52.10;95521.50;5077630;28;20185;-64
2022/01/15 10:42:25;;;;;;;9.82;8.85;;;;;;;7.38;51.89;95518.41;5077109;28;20211;-64
2022/01/15 10:44:54;;;;;;;9.48;8.68;;;;;;;7.20;51.28;95521.13;5077201;28;20221;-64
2022/01/15 10:47:23;;;;;;;9.38;8.48;;;;;;;7.16;51.50;95519.34;5078526;28;20192;-64
2022/01/15 10:49:51;;;;;;;9.70;8.80;;;;;;;6.92;51.29;95522.50;5077461;28;20200;-64
2022/01/15 10:52:20;;;;;;;10.02;9.00;;;;;;;6.81;52.53;95526.69;5076691;28;20200;-64
2022/01/15 10:54:57;;;;;;;9.10;8.20;;;;;;;6.72;52.14;95521.97;5077116;28;20531;-64
2022/01/15 10:57:26;;;;;;;9.90;9.02;;;;;;;6.78;52.42;95522.63;5077920;28;20208;-64
2022/01/15 11:00:09;;;;;;;9.05;8.15;;;;;;;6.91;53.52;95518.97;5077849;28;20189;-65
2022/01/15 11:02:37;;;;;;;10.23;9.32;;;;;;;6.90;52.78;95522.84;5077863;28;20207;-64
2022/01/15 11:05:05;;;;;;;9.07;8.30;;;;;;;6.88;51.40;95532.50;5077588;28;20189;-64
2022/01/15 11:07:37;;;;;;;9.55;8.68;;;;;;;6.81;52.09;95523.94;5077944;28;20193;-64
2022/01/15 11:10:04;;;;;;;9.80;8.88;;;;;;;6.84;52.89;95526.06;5077656;28;20569;-64
2022/01/15 11:12:32;;;;;;;9.80;8.90;;;;;;;6.90;53.26;95522.00;5077696;28;20177;-64
2022/01/15 11:15:00;;;;;;;10.05;9.15;;;;;;;6.86;51.42;95532.00;5076628;28;20559;-64
2022/01/15 11:17:27;;;;;;;10.63;9.52;;;;;;;6.72;51.92;95527.47;5077347;28;20197;-64
2022/01/15 11:19:54;;;;;;;9.93;8.88;;;;;;;6.59;52.35;95530.31;5077247;28;20778;-64
2022/01/15 11:22:22;;;;;;;11.05;9.95;;;;;;;6.53;52.56;95526.09;5077607;28;20262;-64
2022/01/15 11:24:51;;;;;;;11.20;10.20;;;;;;;6.51;52.78;95527.22;5076527;28;20233;-64
2022/01/15 11:27:18;;;;;;;9.93;8.93;;;;;;;6.58;52.30;95525.97;5077176;28;20239;-64
2022/01/15 11:29:47;;;;;;;9.70;8.70;;;;;;;6.54;52.25;95517.56;5075714;28;20229;-64
2022/01/15 11:32:17;;;;;;;9.82;8.85;;;;;;;6.64;52.19;95514.50;5077478;28;20513;-64
2022/01/15 11:34:59;;;;;;;10.05;8.93;;;;;;;7.02;51.42;95516.75;5077281;28;20280;-64
2022/01/15 11:37:26;;;;;;;10.02;9.13;;;;;;;7.36;51.25;95506.94;5077631;28;20193;-64
2022/01/15 11:39:55;;;;;;;9.95;8.65;;;;;;;7.59;50.38;95511.16;5076856;28;20212;-64
2022/01/15 11:42:27;;;;;;;8.82;8.02;;;;;;;7.77;49.66;95505.63;5076280;28;20213;-64
2022/01/15 11:44:54;;;;;;;9.40;8.50;;;;;;;7.89;49.26;95505.81;5076110;28;20201;-64
2022/01/15 11:47:23;;;;;;;9.10;8.25;;;;;;;7.85;49.02;95507.59;5076680;28;20185;-65
2022/01/15 11:49:51;;;;;;;9.20;8.30;;;;;;;7.89;49.13;95514.06;5076411;28;20181;-64
2022/01/15 11:52:41;;;;;;;8.77;7.88;;;;;;;8.06;48.22;95505.78;5076845;28;20208;-64
2022/01/15 11:55:18;;;;;;;8.07;7.38;;;;;;;8.23;47.84;95509.63;5076530;28;20197;-64
2022/01/15 11:58:01;;;;;;;9.70;8.55;;;;;;;8.09;46.27;95507.06;5076288;28;20201;-64
2022/01/15 12:00:36;;;;;;;8.95;8.15;;;;;;;8.23;47.08;95506.88;5076458;28;20181;-64
2022/01/15 12:03:12;;;;;;;8.65;7.75;;;;;;;8.67;47.25;95498.16;5076445;28;20208;-65